Time;durP1;ratioP1;P1;durP2;ratioP2;P2;SDS_P1;SDS_P2;PMS_P1;PMS_P2;Temp;Humidity;BMP_temperature;BMP_pressure;BME280_temperature;BME280_humidity;BME280_pressure;Samples;Min_cycle;Max_cycle;Signal;HPM_P1;HPM_P2
2022/10/18 00:00:31;;;;;;;265.67;71.72;;;;;;;;;;5033474;28;20100;-64
2022/10/18 00:02:56;;;;;;;192.00;64.90;;;;;;;;;;5032807;28;20049;-64
2022/10/18 00:05:21;;;;;;;227.03;69.90;;;;;;;;;;5034020;28;20021;-64
2022/10/18 00:07:46;;;;;;;176.27;63.03;;;;;;;;;;5032575;28;20037;-64
2022/10/18 00:10:11;;;;;;;238.07;69.63;;;;;;;;;;5033895;28;20037;-64
2022/10/18 00:12:37;;;;;;;220.30;66.68;;;;;;;;;;5032687;28;20029;-64
2022/10/18 00:15:03;;;;;;;177.30;69.45;;;;;;;;;;5033393;28;20025;-64
2022/10/18 00:17:28;;;;;;;179.57;63.05;;;;;;;;;;5031791;28;20124;-65
2022/10/18 00:19:54;;;;;;;172.50;62.53;;;;;;;;;;5034201;28;20092;-64
2022/10/18 00:22:19;;;;;;;164.15;62.58;;;;;;;;;;5032060;28;20041;-64
2022/10/18 00:24:44;;;;;;;170.23;61.67;;;;;;;;;;5033828;28;20048;-63
2022/10/18 00:27:10;;;;;;;157.47;62.47;;;;;;;;;;5032679;28;20183;-62
2022/10/18 00:29:35;;;;;;;135.10;57.25;;;;;;;;;;5033059;28;20025;-62
2022/10/18 00:32:00;;;;;;;162.50;57.17;;;;;;;;;;5031927;28;20048;-62
2022/10/18 00:34:25;;;;;;;165.15;59.15;;;;;;;;;;5033538;28;20137;-62
2022/10/18 00:36:51;;;;;;;158.07;60.83;;;;;;;;;;5031552;28;20405;-63
2022/10/18 00:39:17;;;;;;;129.20;60.67;;;;;;;;;;5033459;28;20063;-62
2022/10/18 00:41:43;;;;;;;145.82;59.75;;;;;;;;;;5031313;28;20086;-62
2022/10/18 00:44:11;;;;;;;144.02;58.22;;;;;;;;;;5033671;28;20446;-62
2022/10/18 00:46:37;;;;;;;132.45;55.20;;;;;;;;;;5031629;28;20151;-63
2022/10/18 00:49:14;;;;;;;141.02;54.83;;;;;;;;;;5033859;28;20024;-63
2022/10/18 00:51:45;;;;;;;131.75;52.90;;;;;;;;;;5031303;28;20051;-62
2022/10/18 00:54:11;;;;;;;125.82;51.80;;;;;;;;;;5033400;28;20025;-61
2022/10/18 00:56:36;;;;;;;128.65;52.58;;;;;;;;;;5031678;28;20412;-61
2022/10/18 00:59:01;;;;;;;140.60;56.77;;;;;;;;;;5032460;28;20022;-61
2022/10/18 01:01:26;;;;;;;173.82;60.70;;;;;;;;;;5030684;28;21037;-62
2022/10/18 01:03:52;;;;;;;171.83;59.30;;;;;;;;;;5033155;28;20019;-61
2022/10/18 01:06:18;;;;;;;171.60;57.72;;;;;;;;;;5032542;28;20021;-63
2022/10/18 01:08:51;;;;;;;142.60;48.17;;;;;;;;;;5031171;28;20033;-62
2022/10/18 01:11:34;;;;;;;225.23;58.97;;;;;;;;;;5033353;28;20408;-62
2022/10/18 01:14:03;;;;;;;191.32;58.17;;;;;;;;;;5011464;28;20044;-63
2022/10/18 01:16:46;;;;;;;128.68;53.80;;;;;;;;;;5011484;28;20544;-62
2022/10/18 01:19:41;;;;;;;169.55;60.53;;;;;;;;;;5012398;28;20034;-62
2022/10/18 01:22:38;;;;;;;152.25;58.28;;;;;;;;;;5010971;28;20038;-62
2022/10/18 01:25:22;;;;;;;349.53;69.00;;;;;;;;;;5000886;28;20052;-62
2022/10/18 01:27:49;;;;;;;259.60;52.67;;;;;;;;;;5011545;28;20083;-62
2022/10/18 01:30:30;;;;;;;251.35;62.17;;;;;;;;;;5012447;28;20030;-62
2022/10/18 01:32:59;;;;;;;264.15;59.25;;;;;;;;;;5011679;28;20038;-62
2022/10/18 01:35:33;;;;;;;158.27;56.00;;;;;;;;;;5011864;28;20060;-63
2022/10/18 01:38:00;;;;;;;200.18;57.55;;;;;;;;;;5011287;28;20400;-64
2022/10/18 01:40:26;;;;;;;393.05;56.90;;;;;;;;;;5012228;28;20477;-62
2022/10/18 01:42:51;;;;;;;228.27;48.83;;;;;;;;;;5011008;28;20455;-63
2022/10/18 01:45:17;;;;;;;193.93;53.67;;;;;;;;;;5012951;28;20018;-63
2022/10/18 01:47:44;;;;;;;119.30;46.17;;;;;;;;;;5010813;28;20033;-63
2022/10/18 01:50:09;;;;;;;234.88;54.47;;;;;;;;;;5011974;28;20065;-63
2022/10/18 01:52:34;;;;;;;163.93;45.97;;;;;;;;;;5010698;28;20072;-62
2022/10/18 01:55:00;;;;;;;337.07;58.43;;;;;;;;;;5012299;28;20473;-62
2022/10/18 01:57:31;;;;;;;289.02;52.70;;;;;;;;;;5010602;28;20065;-62
2022/10/18 02:00:02;;;;;;;200.07;61.20;;;;;;;;;;5011803;28;20037;-62
2022/10/18 02:02:36;;;;;;;147.75;52.30;;;;;;;;;;5010879;28;20117;-62
2022/10/18 02:05:06;;;;;;;389.02;78.20;;;;;;;;;;5012501;28;20095;-63
2022/10/18 02:07:35;;;;;;;201.55;64.72;;;;;;;;;;5010328;28;20048;-62
2022/10/18 02:10:11;;;;;;;209.32;64.47;;;;;;;;;;5012099;28;20029;-63
2022/10/18 02:12:39;;;;;;;203.38;58.08;;;;;;;;;;5009798;28;20120;-63
2022/10/18 02:15:06;;;;;;;457.25;79.07;;;;;;;;;;5012204;28;20510;-63
2022/10/18 02:17:31;;;;;;;326.52;67.88;;;;;;;;;;5009820;28;20516;-62
2022/10/18 02:19:58;;;;;;;238.82;62.72;;;;;;;;;;5011795;28;20026;-62
2022/10/18 02:22:25;;;;;;;481.38;89.43;;;;;;;;;;5010386;28;20042;-62
2022/10/18 02:24:53;;;;;;;400.75;77.03;;;;;;;;;;5011679;28;20026;-62
2022/10/18 02:27:18;;;;;;;213.27;60.60;;;;;;;;;;5009997;28;20057;-62
2022/10/18 02:29:44;;;;;;;249.23;64.82;;;;;;;;;;5011769;28;20473;-63
2022/10/18 02:32:30;;;;;;;202.60;67.35;;;;;;;;;;5010394;28;20128;-62
2022/10/18 02:34:58;;;;;;;367.67;77.43;;;;;;;;;;5011265;28;20060;-62
2022/10/18 02:37:27;;;;;;;256.45;70.43;;;;;;;;;;5009759;28;20030;-61
2022/10/18 02:39:52;;;;;;;476.58;84.53;;;;;;;;;;5011731;28;20493;-62
2022/10/18 02:42:17;;;;;;;282.98;66.78;;;;;;;;;;5009977;28;20121;-61
2022/10/18 02:44:42;;;;;;;191.63;58.23;;;;;;;;;;5011678;28;20018;-62
2022/10/18 02:47:09;;;;;;;370.07;73.70;;;;;;;;;;5010114;28;20449;-62
2022/10/18 02:49:34;;;;;;;250.30;66.72;;;;;;;;;;5010739;28;20104;-62
2022/10/18 02:51:59;;;;;;;235.13;64.85;;;;;;;;;;5010256;28;20173;-61
2022/10/18 02:54:24;;;;;;;213.57;64.75;;;;;;;;;;5011125;28;20029;-61
2022/10/18 02:56:50;;;;;;;446.97;81.73;;;;;;;;;;5009520;28;20502;-61
2022/10/18 02:59:15;;;;;;;395.42;78.72;;;;;;;;;;5011601;28;20021;-62
2022/10/18 03:01:40;;;;;;;207.75;69.05;;;;;;;;;;5009668;28;20096;-62
2022/10/18 03:04:05;;;;;;;340.03;67.53;;;;;;;;;;5011585;28;20078;-63
2022/10/18 03:06:31;;;;;;;333.53;73.07;;;;;;;;;;5009296;28;20099;-62
2022/10/18 03:08:56;;;;;;;278.95;72.25;;;;;;;;;;5011065;28;20534;-61
2022/10/18 03:11:22;;;;;;;562.83;93.03;;;;;;;;;;5009499;28;20097;-61
2022/10/18 03:13:49;;;;;;;299.20;72.55;;;;;;;;;;5010942;28;20469;-62
2022/10/18 03:16:14;;;;;;;399.13;73.85;;;;;;;;;;5011354;28;20049;-62
2022/10/18 03:18:39;;;;;;;495.27;82.27;;;;;;;;;;5009390;28;20048;-61
2022/10/18 03:21:05;;;;;;;524.75;88.35;;;;;;;;;;5010959;28;20449;-62
2022/10/18 03:23:30;;;;;;;311.10;67.65;;;;;;;;;;5010756;28;20038;-62
2022/10/18 03:25:55;;;;;;;257.83;68.23;;;;;;;;;;5015261;28;20014;-62
2022/10/18 03:28:20;;;;;;;478.63;80.67;;;;;;;;;;5012658;28;20457;-62
2022/10/18 03:30:45;;;;;;;345.83;73.37;;;;;;;;;;5015324;28;20362;-62
2022/10/18 03:33:11;;;;;;;382.30;72.77;;;;;;;;;;5013776;28;20034;-62
2022/10/18 03:35:36;;;;;;;405.15;74.90;;;;;;;;;;5013903;28;20104;-62
2022/10/18 03:38:02;;;;;;;206.48;60.28;;;;;;;;;;5013561;28;20037;-62
2022/10/18 03:40:27;;;;;;;438.55;80.97;;;;;;;;;;5014828;28;20237;-62
2022/10/18 03:42:52;;;;;;;380.13;72.88;;;;;;;;;;5012900;28;20489;-62
2022/10/18 03:45:17;;;;;;;289.92;66.55;;;;;;;;;;5015078;28;20018;-62
2022/10/18 03:47:42;;;;;;;212.20;62.07;;;;;;;;;;5013398;28;20066;-62
2022/10/18 03:50:08;;;;;;;319.98;68.28;;;;;;;;;;5014917;28;20026;-62
2022/10/18 03:52:33;;;;;;;560.35;86.95;;;;;;;;;;5013226;28;20096;-62
2022/10/18 03:54:58;;;;;;;451.67;78.47;;;;;;;;;;5014346;28;20028;-62
2022/10/18 03:57:23;;;;;;;353.63;68.20;;;;;;;;;;5012361;28;20448;-62
2022/10/18 03:59:48;;;;;;;304.07;70.23;;;;;;;;;;5014484;28;20018;-62
2022/10/18 04:02:13;;;;;;;267.80;67.53;;;;;;;;;;5014599;28;20480;-62
2022/10/18 04:04:39;;;;;;;311.60;68.15;;;;;;;;;;5012378;28;20034;-62
2022/10/18 04:07:04;;;;;;;223.77;60.42;;;;;;;;;;5014413;28;20033;-62
2022/10/18 04:09:29;;;;;;;215.20;58.08;;;;;;;;;;5012575;28;20540;-62
2022/10/18 04:11:54;;;;;;;164.60;57.85;;;;;;;;;;5014229;28;20075;-63
2022/10/18 04:14:22;;;;;;;221.13;64.00;;;;;;;;;;5012489;28;20135;-63
2022/10/18 04:16:47;;;;;;;261.88;66.18;;;;;;;;;;5014416;28;20382;-63
2022/10/18 04:19:12;;;;;;;154.82;57.22;;;;;;;;;;5012369;28;20129;-62
2022/10/18 04:21:37;;;;;;;171.52;57.40;;;;;;;;;;5014293;28;20022;-63
2022/10/18 04:24:03;;;;;;;219.88;63.50;;;;;;;;;;5012602;28;20041;-63
2022/10/18 04:26:28;;;;;;;164.50;56.65;;;;;;;;;;5013347;28;20045;-62
2022/10/18 04:28:53;;;;;;;177.47;57.00;;;;;;;;;;5012566;28;20030;-62
2022/10/18 04:31:18;;;;;;;275.48;69.90;;;;;;;;;;5013889;28;20951;-62
2022/10/18 04:33:43;;;;;;;194.35;64.00;;;;;;;;;;5011953;28;20519;-62
2022/10/18 04:36:09;;;;;;;221.70;60.73;;;;;;;;;;5013889;28;20134;-61
2022/10/18 04:38:34;;;;;;;227.13;63.73;;;;;;;;;;5011759;28;20445;-61
2022/10/18 04:40:59;;;;;;;356.13;72.97;;;;;;;;;;5013473;28;20995;-61
2022/10/18 04:43:24;;;;;;;278.53;68.33;;;;;;;;;;5012286;28;20045;-61
2022/10/18 04:45:50;;;;;;;455.55;79.93;;;;;;;;;;5013302;28;20476;-61
2022/10/18 04:48:15;;;;;;;287.02;64.53;;;;;;;;;;5012210;28;20048;-61
2022/10/18 04:50:40;;;;;;;259.92;61.72;;;;;;;;;;5013542;28;20590;-61
2022/10/18 04:53:05;;;;;;;386.48;70.82;;;;;;;;;;5011647;28;20050;-62
2022/10/18 04:55:31;;;;;;;336.73;63.00;;;;;;;;;;4993583;28;20019;-63
2022/10/18 04:57:56;;;;;;;420.77;70.90;;;;;;;;;;4992674;28;20035;-63
2022/10/18 05:00:21;;;;;;;270.15;61.67;;;;;;;;;;4998436;28;20486;-63
2022/10/18 05:02:46;;;;;;;303.17;65.68;;;;;;;;;;5011589;28;20046;-63
2022/10/18 05:05:11;;;;;;;200.70;58.93;;;;;;;;;;5013234;28;20021;-63
2022/10/18 05:07:36;;;;;;;385.57;69.43;;;;;;;;;;5011230;28;20040;-63
2022/10/18 05:10:02;;;;;;;208.57;59.00;;;;;;;;;;5013556;28;20773;-63
2022/10/18 05:12:27;;;;;;;219.93;60.30;;;;;;;;;;5011639;28;20888;-62
2022/10/18 05:14:52;;;;;;;407.40;76.47;;;;;;;;;;5013293;28;20097;-62
2022/10/18 05:17:17;;;;;;;152.32;54.13;;;;;;;;;;5011745;28;20014;-62
2022/10/18 05:19:43;;;;;;;256.85;58.92;;;;;;;;;;5012174;28;20014;-61
2022/10/18 05:22:08;;;;;;;338.55;67.40;;;;;;;;;;5013346;28;20030;-60
2022/10/18 05:24:33;;;;;;;196.43;57.67;;;;;;;;;;5010848;28;20481;-59
2022/10/18 05:26:58;;;;;;;323.83;66.67;;;;;;;;;;5011925;28;20022;-59
2022/10/18 05:29:24;;;;;;;169.77;51.53;;;;;;;;;;5010719;28;20030;-59
2022/10/18 05:31:49;;;;;;;302.92;61.97;;;;;;;;;;5011492;28;20030;-59
2022/10/18 05:34:14;;;;;;;365.27;68.60;;;;;;;;;;5012460;28;20042;-61
2022/10/18 05:36:39;;;;;;;272.85;59.55;;;;;;;;;;5011279;28;20356;-62
2022/10/18 05:39:05;;;;;;;257.38;58.00;;;;;;;;;;5012485;28;20014;-61
2022/10/18 05:41:30;;;;;;;468.57;75.10;;;;;;;;;;5010775;28;20373;-62
2022/10/18 05:43:55;;;;;;;411.05;68.28;;;;;;;;;;5012825;28;20449;-62
2022/10/18 05:46:20;;;;;;;393.13;66.97;;;;;;;;;;5011255;28;20018;-60
2022/10/18 05:48:48;;;;;;;326.63;64.50;;;;;;;;;;5011749;28;20482;-62
2022/10/18 05:51:14;;;;;;;408.08;67.65;;;;;;;;;;5012121;28;20453;-62
2022/10/18 05:53:39;;;;;;;325.05;62.67;;;;;;;;;;5010943;28;20378;-62
2022/10/18 05:56:04;;;;;;;306.05;62.53;;;;;;;;;;5011980;28;20030;-62
2022/10/18 05:58:29;;;;;;;352.63;66.47;;;;;;;;;;5010146;28;20038;-64
2022/10/18 06:00:57;;;;;;;374.77;65.63;;;;;;;;;;5012410;28;20018;-64
2022/10/18 06:03:22;;;;;;;286.37;61.00;;;;;;;;;;5010238;28;20046;-64
2022/10/18 06:05:47;;;;;;;166.43;52.33;;;;;;;;;;5011548;28;20030;-58
2022/10/18 06:08:13;;;;;;;230.03;58.97;;;;;;;;;;5010254;28;20095;-59
2022/10/18 06:10:38;;;;;;;279.73;69.57;;;;;;;;;;5011540;28;20022;-59
2022/10/18 06:13:04;;;;;;;204.80;60.85;;;;;;;;;;5010086;28;20041;-59
2022/10/18 06:15:29;;;;;;;307.75;69.85;;;;;;;;;;5011164;28;20022;-59
2022/10/18 06:17:54;;;;;;;181.37;57.33;;;;;;;;;;5010222;28;20120;-59
2022/10/18 06:20:19;;;;;;;301.97;66.63;;;;;;;;;;5003639;28;20465;-59
2022/10/18 06:22:44;;;;;;;199.10;55.87;;;;;;;;;;5009826;28;20104;-59
2022/10/18 06:25:09;;;;;;;125.75;52.15;;;;;;;;;;5011254;28;20048;-60
2022/10/18 06:27:34;;;;;;;206.93;59.20;;;;;;;;;;5009906;28;20069;-59
2022/10/18 06:30:00;;;;;;;209.40;63.87;;;;;;;;;;5011974;28;20477;-60
2022/10/18 06:32:25;;;;;;;210.82;57.90;;;;;;;;;;5009665;28;20034;-59
2022/10/18 06:34:50;;;;;;;272.75;66.22;;;;;;;;;;5011288;28;20092;-59
2022/10/18 06:37:15;;;;;;;267.63;61.60;;;;;;;;;;5010113;28;20120;-59
2022/10/18 06:39:40;;;;;;;194.93;57.27;;;;;;;;;;5010746;28;20453;-59
2022/10/18 06:42:05;;;;;;;230.77;65.50;;;;;;;;;;5010114;28;20046;-59
2022/10/18 06:44:31;;;;;;;252.88;60.38;;;;;;;;;;5004517;28;20453;-59
2022/10/18 06:46:56;;;;;;;149.20;53.08;;;;;;;;;;5008505;28;20046;-59
2022/10/18 06:49:21;;;;;;;254.50;63.43;;;;;;;;;;5011467;28;20018;-59
2022/10/18 06:51:46;;;;;;;206.82;56.58;;;;;;;;;;5009744;28;20091;-59
2022/10/18 06:54:12;;;;;;;170.73;55.63;;;;;;;;;;5011136;28;20168;-59
2022/10/18 06:56:37;;;;;;;161.30;52.28;;;;;;;;;;5009299;28;20449;-59
2022/10/18 06:59:02;;;;;;;204.20;55.63;;;;;;;;;;5010954;28;20032;-59
2022/10/18 07:01:27;;;;;;;162.15;54.13;;;;;;;;;;5007590;28;20029;-59
2022/10/18 07:03:53;;;;;;;170.10;52.60;;;;;;;;;;5016813;28;20013;-59
2022/10/18 07:06:18;;;;;;;165.90;44.92;;;;;;;;;;5027902;28;20468;-59
2022/10/18 07:08:44;;;;;;;195.43;46.60;;;;;;;;;;5009209;28;20053;-60
2022/10/18 07:11:14;;;;;;;164.55;47.30;;;;;;;;;;5011004;28;20073;-59
2022/10/18 07:13:39;;;;;;;124.80;43.35;;;;;;;;;;5009576;28;20113;-59
2022/10/18 07:16:06;;;;;;;135.60;43.20;;;;;;;;;;5010751;28;20441;-60
2022/10/18 07:18:34;;;;;;;110.30;36.65;;;;;;;;;;5009259;28;20049;-59
2022/10/18 07:21:00;;;;;;;;;;;;;;;;;;5011620;28;20014;-59
2022/10/18 07:23:25;;;;;;;126.45;42.95;;;;;;;;;;5008616;28;19917;-59
2022/10/18 07:25:50;;;;;;;143.27;44.07;;;;;;;;;;5010719;28;20029;-59
2022/10/18 07:28:15;;;;;;;122.70;39.58;;;;;;;;;;5009045;28;20460;-59
2022/10/18 07:30:40;;;;;;;127.53;39.15;;;;;;;;;;5010084;28;20482;-59
2022/10/18 07:33:05;;;;;;;114.65;39.08;;;;;;;;;;5009140;28;20112;-59
2022/10/18 07:35:31;;;;;;;105.78;34.55;;;;;;;;;;5009359;28;20050;-59
2022/10/18 07:37:56;;;;;;;107.53;37.92;;;;;;;;;;5006919;28;20480;-59
2022/10/18 07:40:21;;;;;;;111.18;40.15;;;;;;;;;;5008933;28;20022;-59
2022/10/18 07:42:46;;;;;;;117.68;41.17;;;;;;;;;;5006857;28;20046;-59
2022/10/18 07:45:12;;;;;;;103.88;37.65;;;;;;;;;;5011192;28;20381;-58
2022/10/18 07:47:37;;;;;;;108.78;41.17;;;;;;;;;;5009118;28;20093;-58
2022/10/18 07:50:02;;;;;;;101.80;38.80;;;;;;;;;;5015399;28;20021;-58
2022/10/18 07:52:27;;;;;;;90.87;34.80;;;;;;;;;;5021374;28;20520;-58
2022/10/18 07:54:53;;;;;;;83.70;34.75;;;;;;;;;;5030372;28;20794;-58
2022/10/18 07:57:18;;;;;;;101.20;36.97;;;;;;;;;;5009685;28;20433;-58
2022/10/18 07:59:45;;;;;;;74.90;33.40;;;;;;;;;;5011395;28;20080;-59
2022/10/18 08:02:10;;;;;;;68.32;30.92;;;;;;;;;;5008042;28;20472;-58
2022/10/18 08:04:35;;;;;;;75.60;31.98;;;;;;;;;;5009930;28;20034;-58
2022/10/18 08:07:00;;;;;;;82.10;35.33;;;;;;;;;;5010867;28;20072;-58
2022/10/18 08:09:25;;;;;;;80.10;34.93;;;;;;;;;;5012547;28;20460;-59
2022/10/18 08:11:51;;;;;;;74.90;36.17;;;;;;;;;;5013876;28;20491;-58
2022/10/18 08:14:16;;;;;;;85.10;35.00;;;;;;;;;;5030654;28;20471;-59
2022/10/18 08:16:41;;;;;;;76.07;34.65;;;;;;;;;;5012071;28;20038;-58
2022/10/18 08:19:06;;;;;;;74.97;33.28;;;;;;;;;;5014575;28;20527;-58
2022/10/18 08:21:31;;;;;;;53.95;28.60;;;;;;;;;;5018161;28;20056;-58
2022/10/18 08:23:56;;;;;;;57.60;29.65;;;;;;;;;;5021150;28;20072;-58
2022/10/18 08:26:22;;;;;;;62.90;26.63;;;;;;;;;;5012933;28;20441;-57
2022/10/18 08:28:47;;;;;;;50.80;26.40;;;;;;;;;;5014182;28;20022;-58
2022/10/18 08:31:16;;;;;;;52.70;26.95;;;;;;;;;;5023435;28;20026;-58
2022/10/18 08:33:41;;;;;;;47.67;27.48;;;;;;;;;;5012981;28;20065;-58
2022/10/18 08:36:07;;;;;;;50.10;27.15;;;;;;;;;;5013800;28;20607;-58
2022/10/18 08:38:33;;;;;;;56.35;26.30;;;;;;;;;;5029813;28;20091;-58
2022/10/18 08:41:01;;;;;;;55.70;26.85;;;;;;;;;;5021001;28;20025;-58
2022/10/18 08:43:36;;;;;;;37.92;21.98;;;;;;;;;;5014386;28;20132;-57
2022/10/18 08:46:01;;;;;;;39.95;24.55;;;;;;;;;;5025835;28;20033;-58
2022/10/18 08:48:35;;;;;;;35.33;20.23;;;;;;;;;;5018677;28;20045;-58
2022/10/18 08:51:01;;;;;;;39.30;21.70;;;;;;;;;;5018892;28;20026;-58
2022/10/18 08:53:30;;;;;;;45.42;22.63;;;;;;;;;;5011076;28;20930;-58
2022/10/18 08:56:04;;;;;;;49.25;22.85;;;;;;;;;;5011557;28;20036;-59
2022/10/18 08:58:30;;;;;;;44.78;24.17;;;;;;;;;;5006224;28;20132;-58
2022/10/18 09:01:14;;;;;;;39.53;23.45;;;;;;;;;;5008569;28;20040;-58
2022/10/18 09:04:01;;;;;;;53.65;26.00;;;;;;;;;;5009320;28;20044;-58
2022/10/18 09:06:44;;;;;;;51.13;28.67;;;;;;;;;;5009031;28;20105;-58
2022/10/18 09:09:33;;;;;;;35.58;22.58;;;;;;;;;;5011626;28;20016;-58
2022/10/18 09:11:58;;;;;;;34.22;22.13;;;;;;;;;;5010320;28;20113;-58
2022/10/18 09:14:29;;;;;;;41.60;21.15;;;;;;;;;;5010595;28;20157;-59
2022/10/18 09:17:13;;;;;;;25.45;16.98;;;;;;;;;;5011357;28;20393;-58
2022/10/18 09:19:38;;;;;;;24.90;18.55;;;;;;;;;;5012406;28;20104;-58
2022/10/18 09:22:06;;;;;;;31.85;16.38;;;;;;;;;;5008793;28;20124;-58
2022/10/18 09:24:37;;;;;;;27.50;14.75;;;;;;;;;;5012452;28;20037;-58
2022/10/18 09:27:04;;;;;;;21.70;13.73;;;;;;;;;;5010932;28;20037;-58
2022/10/18 09:29:38;;;;;;;20.52;11.35;;;;;;;;;;5011177;28;20018;-58
2022/10/18 09:32:09;;;;;;;17.58;10.23;;;;;;;;;;4991389;28;20056;-59
2022/10/18 09:34:37;;;;;;;25.83;14.00;;;;;;;;;;4992445;28;20059;-59
2022/10/18 09:37:03;;;;;;;20.40;12.75;;;;;;;;;;4989908;28;20093;-58
2022/10/18 09:39:32;;;;;;;17.75;12.45;;;;;;;;;;4992474;28;20062;-58
2022/10/18 09:42:16;;;;;;;18.13;11.90;;;;;;;;;;4998292;28;20133;-58
2022/10/18 09:44:44;;;;;;;19.20;12.73;;;;;;;;;;5006201;28;20034;-59
2022/10/18 09:47:22;;;;;;;22.83;11.52;;;;;;;;;;5026004;28;20053;-58
2022/10/18 09:49:51;;;;;;;15.73;11.60;;;;;;;;;;5011014;28;20085;-58
2022/10/18 09:52:30;;;;;;;20.77;10.52;;;;;;;;;;5010501;28;20520;-59
2022/10/18 09:54:57;;;;;;;15.18;9.25;;;;;;;;;;5011029;28;20022;-58
2022/10/18 09:57:43;;;;;;;17.02;8.98;;;;;;;;;;5009034;28;20041;-58
2022/10/18 10:00:14;;;;;;;25.70;10.15;;;;;;;;;;5010799;28;20029;-58
2022/10/18 10:02:39;;;;;;;16.02;9.18;;;;;;;;;;5009950;28;20042;-59
2022/10/18 10:05:08;;;;;;;24.38;12.23;;;;;;;;;;5010394;28;20030;-58
2022/10/18 10:07:34;;;;;;;18.15;9.80;;;;;;;;;;5023200;28;20072;-58
2022/10/18 10:10:06;;;;;;;22.58;9.52;;;;;;;;;;5022458;28;20492;-59
2022/10/18 10:12:32;;;;;;;16.35;9.60;;;;;;;;;;5008570;28;20038;-58
2022/10/18 10:15:21;;;;;;;16.13;9.68;;;;;;;;;;5010139;28;20033;-58
2022/10/18 10:17:54;;;;;;;14.95;10.07;;;;;;;;;;4999362;28;20038;-58
2022/10/18 10:20:20;;;;;;;13.43;8.63;;;;;;;;;;5010613;28;20064;-58
2022/10/18 10:22:46;;;;;;;14.82;8.02;;;;;;;;;;5008913;28;20176;-58
2022/10/18 10:25:31;;;;;;;12.05;5.90;;;;;;;;;;5010864;28;20104;-58
2022/10/18 10:28:01;;;;;;;16.15;5.78;;;;;;;;;;5008935;28;20038;-58
2022/10/18 10:30:29;;;;;;;13.18;4.55;;;;;;;;;;5003478;28;20061;-58
2022/10/18 10:32:55;;;;;;;11.10;4.60;;;;;;;;;;5009341;28;20045;-58
2022/10/18 10:35:21;;;;;;;8.35;4.50;;;;;;;;;;5008290;28;20077;-58
2022/10/18 10:37:50;;;;;;;20.67;6.75;;;;;;;;;;5009281;28;20045;-58
2022/10/18 10:40:18;;;;;;;11.35;4.70;;;;;;;;;;5010988;28;20017;-58
2022/10/18 10:42:58;;;;;;;13.45;4.43;;;;;;;;;;5008188;28;20176;-58
2022/10/18 10:45:24;;;;;;;5.32;3.47;;;;;;;;;;5010531;28;20484;-58
2022/10/18 10:47:51;;;;;;;10.45;3.95;;;;;;;;;;5009526;28;20038;-58
2022/10/18 10:50:22;;;;;;;12.20;2.65;;;;;;;;;;5009929;28;20026;-58
2022/10/18 10:52:47;;;;;;;6.72;3.08;;;;;;;;;;5008911;28;20076;-59
2022/10/18 10:55:21;;;;;;;7.40;3.50;;;;;;;;;;5011067;28;20072;-59
2022/10/18 10:57:47;;;;;;;8.27;3.05;;;;;;;;;;5008600;28;20038;-58
2022/10/18 11:00:34;;;;;;;8.15;2.67;;;;;;;;;;5010090;28;20034;-58
2022/10/18 11:03:25;;;;;;;7.82;3.90;;;;;;;;;;5009355;28;20103;-58
2022/10/18 11:05:52;;;;;;;9.85;2.38;;;;;;;;;;5008552;28;20034;-58
2022/10/18 11:08:30;;;;;;;6.70;2.05;;;;;;;;;;5009116;28;20068;-58
2022/10/18 11:11:00;;;;;;;11.70;2.97;;;;;;;;;;5011055;28;20570;-58
2022/10/18 11:13:26;;;;;;;6.90;2.55;;;;;;;;;;5008136;28;20038;-58
2022/10/18 11:15:51;;;;;;;5.20;2.60;;;;;;;;;;5010905;28;20022;-57
2022/10/18 11:18:20;;;;;;;7.63;2.33;;;;;;;;;;5008443;28;20041;-58
2022/10/18 11:21:00;;;;;;;8.00;2.63;;;;;;;;;;5009220;28;20605;-57
2022/10/18 11:23:30;;;;;;;9.77;2.20;;;;;;;;;;4989417;28;20129;-58
2022/10/18 11:26:05;;;;;;;11.82;3.28;;;;;;;;;;4990243;28;20034;-58
2022/10/18 11:28:36;;;;;;;13.15;4.45;;;;;;;;;;4989210;28;20045;-58
2022/10/18 11:31:19;;;;;;;6.55;3.88;;;;;;;;;;4991117;28;20034;-58
2022/10/18 11:33:49;;;;;;;10.55;3.00;;;;;;;;;;5000276;28;20038;-58
2022/10/18 11:36:19;;;;;;;3.20;2.00;;;;;;;;;;5009782;28;20057;-58
2022/10/18 11:39:02;;;;;;;7.97;3.28;;;;;;;;;;5008556;28;20125;-58
2022/10/18 11:41:37;;;;;;;6.80;3.03;;;;;;;;;;5005700;28;20508;-58
2022/10/18 11:44:07;;;;;;;12.55;3.38;;;;;;;;;;5017331;28;20029;-59
2022/10/18 11:46:45;;;;;;;8.60;2.83;;;;;;;;;;5012324;28;20531;-58
2022/10/18 11:49:15;;;;;;;6.43;2.63;;;;;;;;;;5014579;28;20049;-58
2022/10/18 11:51:46;;;;;;;7.30;2.42;;;;;;;;;;5012207;28;20645;-58
2022/10/18 11:54:13;;;;;;;14.32;2.30;;;;;;;;;;5014171;28;20488;-58
2022/10/18 11:56:46;;;;;;;4.55;2.05;;;;;;;;;;5013060;28;20026;-58
2022/10/18 11:59:28;;;;;;;5.75;1.95;;;;;;;;;;5013032;28;20025;-58
2022/10/18 12:01:56;;;;;;;5.47;3.13;;;;;;;;;;5012724;28;20066;-58
2022/10/18 12:04:26;;;;;;;7.90;2.45;;;;;;;;;;5014255;28;20053;-58
2022/10/18 12:06:53;;;;;;;7.45;1.80;;;;;;;;;;5012568;28;20113;-58
2022/10/18 12:09:23;;;;;;;8.38;2.60;;;;;;;;;;5014174;28;20022;-58
2022/10/18 12:11:51;;;;;;;7.18;2.85;;;;;;;;;;5012078;28;20038;-58
2022/10/18 12:14:35;;;;;;;4.38;1.67;;;;;;;;;;5012852;28;20029;-58
2022/10/18 12:17:07;;;;;;;7.78;2.42;;;;;;;;;;5012385;28;20042;-58
2022/10/18 12:19:33;;;;;;;10.50;2.75;;;;;;;;;;5012590;28;20057;-59
2022/10/18 12:22:18;;;;;;;11.98;3.00;;;;;;;;;;5012020;28;20128;-58
2022/10/18 12:24:44;;;;;;;6.35;1.67;;;;;;;;;;5013470;28;20017;-58
2022/10/18 12:27:11;;;;;;;5.73;1.77;;;;;;;;;;5012223;28;20053;-58
2022/10/18 12:29:37;;;;;;;8.90;2.65;;;;;;;;;;5013683;28;20033;-58
2022/10/18 12:32:06;;;;;;;14.93;4.23;;;;;;;;;;5012123;28;20034;-58
2022/10/18 12:34:39;;;;;;;6.43;1.63;;;;;;;;;;5011901;28;20468;-58
2022/10/18 12:37:24;;;;;;;8.27;3.17;;;;;;;;;;5010930;28;20037;-58
2022/10/18 12:39:57;;;;;;;6.35;2.03;;;;;;;;;;5012442;28;20169;-58
2022/10/18 12:42:24;;;;;;;3.88;2.50;;;;;;;;;;5010375;28;20096;-58
2022/10/18 12:44:58;;;;;;;7.40;2.10;;;;;;;;;;5012547;28;20087;-59
2022/10/18 12:47:24;;;;;;;4.95;1.85;;;;;;;;;;5010596;28;20030;-58
2022/10/18 12:49:57;;;;;;;7.25;2.08;;;;;;;;;;5013005;28;20029;-58
2022/10/18 12:52:23;;;;;;;5.05;1.85;;;;;;;;;;5011518;28;20042;-59
2022/10/18 12:55:18;;;;;;;7.13;1.77;;;;;;;;;;5012403;28;20021;-58
2022/10/18 12:57:52;;;;;;;5.70;2.10;;;;;;;;;;4987940;28;20480;-58
2022/10/18 13:00:29;;;;;;;7.03;2.28;;;;;;;;;;5012209;28;20029;-58
2022/10/18 13:03:16;;;;;;;9.45;3.03;;;;;;;;;;5008627;28;20052;-58
2022/10/18 13:05:50;;;;;;;9.25;2.22;;;;;;;;;;5012699;28;20022;-58
2022/10/18 13:08:37;;;;;;;8.25;2.05;;;;;;;;;;5010900;28;20034;-58
2022/10/18 13:11:08;;;;;;;5.25;1.92;;;;;;;;;;5005644;28;20117;-58
2022/10/18 13:13:42;;;;;;;7.85;2.72;;;;;;;;;;5010637;28;20048;-58
2022/10/18 13:16:10;;;;;;;8.25;2.45;;;;;;;;;;5011938;28;20041;-58
2022/10/18 13:18:51;;;;;;;9.98;1.50;;;;;;;;;;5010251;28;20034;-58
2022/10/18 13:21:24;;;;;;;5.43;2.17;;;;;;;;;;5008087;28;20022;-58
2022/10/18 13:24:05;;;;;;;7.53;1.63;;;;;;;;;;5010890;28;20045;-58
2022/10/18 13:26:53;;;;;;;4.63;1.67;;;;;;;;;;5000813;28;20105;-59
2022/10/18 13:29:27;;;;;;;6.95;1.77;;;;;;;;;;5012053;28;20102;-58
2022/10/18 13:32:11;;;;;;;4.65;1.85;;;;;;;;;;5008079;28;20120;-58
2022/10/18 13:34:39;;;;;;;4.85;1.40;;;;;;;;;;4993498;28;20498;-58
2022/10/18 13:37:07;;;;;;;8.25;1.35;;;;;;;;;;5006903;28;20041;-58
2022/10/18 13:39:33;;;;;;;4.55;1.77;;;;;;;;;;5011644;28;20084;-58
2022/10/18 13:41:59;;;;;;;5.47;1.08;;;;;;;;;;5010570;28;20042;-58
2022/10/18 13:44:29;;;;;;;4.25;1.67;;;;;;;;;;5011593;28;20091;-60
2022/10/18 13:46:54;;;;;;;4.40;1.90;;;;;;;;;;5010942;28;20121;-58
2022/10/18 13:49:28;;;;;;;10.90;2.47;;;;;;;;;;5011611;28;20104;-58
2022/10/18 13:52:12;;;;;;;6.82;2.28;;;;;;;;;;4995637;28;20041;-58
2022/10/18 13:54:49;;;;;;;3.25;2.28;;;;;;;;;;5015361;28;20060;-58
2022/10/18 13:57:19;;;;;;;3.60;2.17;;;;;;;;;;5030259;28;20034;-58
2022/10/18 13:59:47;;;;;;;6.60;2.22;;;;;;;;;;5031069;28;20378;-58
2022/10/18 14:02:22;;;;;;;2.95;2.58;;;;;;;;;;5029782;28;20489;-58
2022/10/18 14:05:07;;;;;;;11.38;4.25;;;;;;;;;;5031458;28;20029;-58
2022/10/18 14:07:33;;;;;;;3.88;1.73;;;;;;;;;;5029700;28;20045;-58
2022/10/18 14:09:59;;;;;;;7.32;2.45;;;;;;;;;;5031739;28;20018;-58
2022/10/18 14:12:27;;;;;;;9.95;1.52;;;;;;;;;;5029365;28;20409;-58
2022/10/18 14:15:04;;;;;;;3.10;1.13;;;;;;;;;;5030511;28;20071;-58
2022/10/18 14:17:41;;;;;;;4.30;1.65;;;;;;;;;;5029493;28;20119;-59
2022/10/18 14:20:18;;;;;;;5.82;1.40;;;;;;;;;;5031357;28;20025;-59
2022/10/18 14:22:56;;;;;;;6.18;2.33;;;;;;;;;;5026770;28;20037;-58
2022/10/18 14:25:24;;;;;;;9.25;2.08;;;;;;;;;;5038570;28;20052;-58